Time;durP1;ratioP1;P1;durP2;ratioP2;P2;SDS_P1;SDS_P2;PMS_P1;PMS_P2;Temp;Humidity;BMP_temperature;BMP_pressure;BME280_temperature;BME280_humidity;BME280_pressure;Samples;Min_cycle;Max_cycle;Signal;HPM_P1;HPM_P2
2024/02/17 13:38:15;;;;;;;1.17;0.80;;;15.20;99.90;;;;;;4442608;22;15092813;-94
2024/02/17 13:41:22;;;;;;;4.97;0.70;;;15.10;99.90;;;;;;5020928;23;20762;-95
2024/02/17 13:43:57;;;;;;;4.93;0.63;;;15.00;99.90;;;;;;5018259;23;20163;-94
2024/02/17 13:47:01;;;;;;;0.70;0.60;;;15.00;99.90;;;;;;5024491;23;20162;-94
2024/02/17 13:56:50;;;;;;;;;;;;;;;;;;;;;
2024/02/17 14:08:06;;;;;;;;;;;;;;;;;;;;;
2024/02/17 14:17:39;;;;;;;0.73;0.52;;;15.20;99.90;;;;;;4710200;24;20175;-94
2024/02/17 14:23:52;;;;;;;;;;;;;;;;;;;;;
2024/02/17 14:46:34;;;;;;;;;;;;;;;;;;;;;
2024/02/17 14:53:17;;;;;;;1.17;0.30;;;14.90;99.90;;;;;;5086547;23;20571;-94
2024/02/17 14:59:54;;;;;;;0.68;0.30;;;14.80;99.90;;;;;;5050153;23;20234;-93
2024/02/17 15:06:22;;;;;;;;;;;;;;;;;;;;;
2024/02/17 15:16:35;;;;;;;1.63;0.50;;;14.50;99.90;;;;;;4796985;24;20169;-95
2024/02/17 16:04:47;;;;;;;1.65;0.55;;;14.20;99.90;;;;;;5000417;23;20200;-94
2024/02/17 18:38:31;;;;;;;;;;;;;;;;;;;;;
2024/02/17 18:42:07;;;;;;;3.92;1.02;;;12.60;99.90;;;;;;5129503;23;20242;-95
2024/02/17 18:45:12;;;;;;;8.68;1.73;;;12.50;99.90;;;;;;5001261;23;20243;-95
2024/02/17 18:52:28;;;;;;;;;;;;;;;;;;;;;
2024/02/17 20:35:39;;;;;;;;;;;;;;;;;;;;;
2024/02/17 20:41:50;;;;;;;;;;;;;;;;;;;;;
2024/02/17 20:44:47;;;;;;;;;;;;;;;;;;;;;
2024/02/17 20:47:42;;;;;;;;;;;;;;;;;;;;;
2024/02/17 20:51:17;;;;;;;;;;;;;;;;;;;;;
2024/02/17 20:54:06;;;;;;;;;;;;;;;;;;;;;
2024/02/17 20:56:54;;;;;;;;;;;;;;;;;;;;;
2024/02/17 21:10:03;;;;;;;;;;;;;;;;;;;;;
2024/02/17 21:19:39;;;;;;;6.43;0.80;;;11.70;99.90;;;;;;4932002;24;20279;-95
2024/02/17 21:24:44;;;;;;;5.00;1.05;;;11.50;99.90;;;;;;5022979;23;20223;-94
2024/02/17 21:27:35;;;;;;;6.60;1.85;;;11.60;99.90;;;;;;4983594;23;20168;-95
2024/02/17 21:30:45;;;;;;;3.03;0.82;;;11.60;99.90;;;;;;4986932;23;20673;-94
2024/02/17 21:36:33;;;;;;;;;;;;;;;;;;;;;
2024/02/17 21:42:38;;;;;;;;;;;;;;;;;;;;;
2024/02/17 21:45:50;;;;;;;8.52;1.52;;;11.70;99.90;;;;;;5095393;23;20157;-94
2024/02/17 21:48:38;;;;;;;4.93;1.45;;;11.80;99.90;;;;;;5051581;23;20178;-95
2024/02/17 21:51:13;;;;;;;4.72;1.13;;;11.60;99.90;;;;;;5102732;23;20209;-96
2024/02/17 21:54:30;;;;;;;2.03;0.55;;;11.60;99.90;;;;;;5100606;23;20228;-94
2024/02/17 21:57:19;;;;;;;2.17;0.93;;;11.50;99.90;;;;;;4993417;23;20156;-95
2024/02/17 21:59:31;;;;;;;5.55;0.93;;;11.60;99.90;;;;;;5107936;23;20168;-94
2024/02/17 22:02:08;;;;;;;7.53;1.30;;;11.60;99.90;;;;;;5068062;23;20158;-94
2024/02/17 22:04:33;;;;;;;;;;;;;;;;;;;;;
2024/02/17 22:06:46;;;;;;;7.05;1.10;;;11.50;99.90;;;;;;5075796;23;20141;-94
2024/02/17 22:09:13;;;;;;;1.10;0.82;;;11.50;99.90;;;;;;5103316;23;20259;-94
2024/02/17 22:11:26;;;;;;;4.70;1.00;;;11.40;99.90;;;;;;5048291;23;20242;-95
2024/02/17 22:14:03;;;;;;;4.95;1.02;;;11.40;99.90;;;;;;5100702;23;20192;-94
2024/02/17 22:16:24;;;;;;;5.13;1.25;;;11.30;99.90;;;;;;5052608;23;20150;-94
2024/02/17 22:22:35;;;;;;;2.50;1.05;;;11.30;99.90;;;;;;5047544;23;20183;-93
2024/02/17 22:24:56;;;;;;;3.70;1.23;;;11.20;99.90;;;;;;5077432;23;20252;-94
2024/02/17 22:27:22;;;;;;;7.93;2.08;;;11.30;99.90;;;;;;5076188;23;20528;-93
2024/02/17 22:30:16;;;;;;;2.35;1.17;;;11.40;99.90;;;;;;5069985;23;20236;-94
2024/02/17 22:33:12;;;;;;;3.05;1.17;;;11.50;99.90;;;;;;5022807;23;20194;-93
2024/02/17 22:35:47;;;;;;;6.68;1.60;;;11.50;99.90;;;;;;5051117;23;20608;-94
2024/02/17 22:37:54;;;;;;;2.47;1.63;;;11.50;99.90;;;;;;5071321;23;20182;-95
2024/02/17 22:40:16;;;;;;;9.90;2.50;;;11.50;99.90;;;;;;5073959;23;20912;-95
2024/02/17 22:42:29;;;;;;;4.47;1.67;;;11.50;99.90;;;;;;5070978;23;20281;-94
2024/02/17 22:45:26;;;;;;;8.55;2.00;;;11.50;99.90;;;;;;5075766;23;20154;-94
2024/02/17 22:47:41;;;;;;;1.67;0.70;;;11.50;99.90;;;;;;5007279;23;20188;-93
2024/02/17 22:49:42;;;;;;;3.58;1.17;;;11.50;99.90;;;;;;5049737;23;20494;-95
2024/02/17 22:51:57;;;;;;;3.38;0.88;;;11.40;99.90;;;;;;5071176;23;20636;-93
2024/02/17 22:54:49;;;;;;;4.20;1.83;;;11.50;99.90;;;;;;5078199;23;20165;-93
2024/02/17 22:57:15;;;;;;;4.68;1.38;;;11.50;99.90;;;;;;5071547;23;20158;-95
2024/02/17 23:03:23;;;;;;;6.28;0.95;;;11.30;99.90;;;;;;5066628;23;20160;-93
2024/02/17 23:05:52;;;;;;;0.98;0.47;;;11.40;99.90;;;;;;5047925;23;20190;-96
2024/02/17 23:09:05;;;;;;;3.28;1.10;;;11.40;99.90;;;;;;5048102;23;20687;-93
2024/02/17 23:12:16;;;;;;;2.90;1.05;;;11.50;99.90;;;;;;5033288;23;20182;-93
2024/02/17 23:15:03;;;;;;;1.65;0.60;;;11.40;99.90;;;;;;5062529;23;20303;-96
2024/02/17 23:17:21;;;;;;;0.88;0.50;;;11.30;99.90;;;;;;5048354;23;20154;-94
2024/02/17 23:19:33;;;;;;;6.15;1.00;;;11.20;99.90;;;;;;5046058;23;20158;-95
2024/02/17 23:22:23;;;;;;;1.63;0.73;;;11.30;99.90;;;;;;5077315;23;20594;-95
2024/02/17 23:25:10;;;;;;;4.65;0.68;;;11.30;99.90;;;;;;5053695;23;20230;-94
2024/02/17 23:27:43;;;;;;;3.30;0.63;;;11.40;99.90;;;;;;5052165;23;20164;-96
2024/02/17 23:32:58;;;;;;;12.27;0.98;;;11.40;99.90;;;;;;5023327;23;20202;-95
2024/02/17 23:35:04;;;;;;;8.30;0.63;;;11.20;99.90;;;;;;5021406;23;20167;-93
2024/02/17 23:38:15;;;;;;;3.53;1.50;;;11.30;99.90;;;;;;4999752;23;20300;-95
2024/02/17 23:40:42;;;;;;;3.55;0.30;;;11.40;99.90;;;;;;5045832;23;20285;-95
2024/02/17 23:43:12;;;;;;;4.53;1.10;;;11.30;99.90;;;;;;5018576;23;20158;-94
2024/02/17 23:45:41;;;;;;;2.65;0.88;;;11.30;99.90;;;;;;5072844;23;20157;-94
2024/02/17 23:47:58;;;;;;;13.52;1.15;;;11.30;99.90;;;;;;5069866;23;20629;-95
2024/02/17 23:50:06;;;;;;;2.42;0.63;;;11.40;99.90;;;;;;5070147;23;20165;-95
2024/02/17 23:52:18;;;;;;;2.33;0.80;;;11.40;99.90;;;;;;5071119;23;20225;-94
2024/02/17 23:54:53;;;;;;;2.78;1.00;;;11.50;99.90;;;;;;5072417;23;20473;-94
2024/02/17 23:57:11;;;;;;;3.90;1.10;;;11.40;99.90;;;;;;5072462;23;20638;-94
2024/02/17 23:59:54;;;;;;;;;;;;;;;;;;;;;
